Terminal Aerodrome Forecast
Issued by NWS Brownsville, TX

Current Version | Previous Version | Text Only | Print | Product List | Glossary On
Versions: 1 2 3 4 5 6 7 8 9 10 11 12 13 14 15 16 17
000
FTUS44 KBRO 170308 AAB
TAFMFE
TAF AMD
KMFE 170308Z 1703/1724 33004KT P6SM OVC005
     FM170700 32002KT 4SM BR OVC007
     FM170900 35003KT 2SM BR OVC003
     FM171500 35004KT 4SM BR OVC005
     FM172000 08005KT P6SM OVC015=

USA.gov is the U.S. government's official web portal to all federal, state and local government web resources and services.